sensor_id;sensor_type;location;lat;lon;timestamp;pressure;altitude;pressure_sealevel;temperature;humidity
49709;BME280;35601;55.902;13.606;2023-08-30T00:00:53;99953.28;;;12.26;79.93
49709;BME280;35601;55.902;13.606;2023-08-30T00:03:18;99953.95;;;12.06;79.73
49709;BME280;35601;55.902;13.606;2023-08-30T00:05:43;99957.26;;;11.92;80.42
49709;BME280;35601;55.902;13.606;2023-08-30T00:08:09;99956.53;;;12.26;80.21
49709;BME280;35601;55.902;13.606;2023-08-30T00:10:34;99953.76;;;11.98;80.34
49709;BME280;35601;55.902;13.606;2023-08-30T00:12:59;99952.64;;;12.02;80.39
49709;BME280;35601;55.902;13.606;2023-08-30T00:15:24;99951.50;;;12.30;80.28
49709;BME280;35601;55.902;13.606;2023-08-30T00:17:49;99947.75;;;12.30;79.93
49709;BME280;35601;55.902;13.606;2023-08-30T00:20:15;99942.36;;;12.07;79.54
49709;BME280;35601;55.902;13.606;2023-08-30T00:22:40;99941.59;;;12.06;79.47
49709;BME280;35601;55.902;13.606;2023-08-30T00:25:05;99950.86;;;11.98;80.30
49709;BME280;35601;55.902;13.606;2023-08-30T00:27:30;99956.49;;;12.25;80.19
49709;BME280;35601;55.902;13.606;2023-08-30T00:29:55;99956.99;;;12.00;80.27
49709;BME280;35601;55.902;13.606;2023-08-30T00:32:20;99952.87;;;12.26;79.84
49709;BME280;35601;55.902;13.606;2023-08-30T00:34:45;99949.97;;;11.97;79.59
49709;BME280;35601;55.902;13.606;2023-08-30T00:37:11;99942.45;;;11.96;80.35
49709;BME280;35601;55.902;13.606;2023-08-30T00:39:37;99940.15;;;11.77;80.09
49709;BME280;35601;55.902;13.606;2023-08-30T00:42:01;99940.13;;;12.05;80.04
49709;BME280;35601;55.902;13.606;2023-08-30T00:44:26;99947.04;;;12.00;80.51
49709;BME280;35601;55.902;13.606;2023-08-30T00:46:51;99950.85;;;12.06;80.64
49709;BME280;35601;55.902;13.606;2023-08-30T00:49:17;99948.27;;;11.84;80.66
49709;BME280;35601;55.902;13.606;2023-08-30T00:51:42;99944.35;;;12.08;80.47
49709;BME280;35601;55.902;13.606;2023-08-30T00:54:07;99943.15;;;11.84;80.20
49709;BME280;35601;55.902;13.606;2023-08-30T00:56:32;99942.94;;;12.08;80.14
49709;BME280;35601;55.902;13.606;2023-08-30T00:58:57;99944.14;;;12.33;80.03
49709;BME280;35601;55.902;13.606;2023-08-30T01:01:23;99942.85;;;12.08;80.17
49709;BME280;35601;55.902;13.606;2023-08-30T01:03:48;99942.48;;;11.96;80.86
49709;BME280;35601;55.902;13.606;2023-08-30T01:06:13;99943.18;;;11.77;80.84
49709;BME280;35601;55.902;13.606;2023-08-30T01:08:39;99944.74;;;11.83;80.32
49709;BME280;35601;55.902;13.606;2023-08-30T01:11:09;99942.14;;;12.09;80.10
49709;BME280;35601;55.902;13.606;2023-08-30T01:13:30;99936.67;;;12.10;80.05
49709;BME280;35601;55.902;13.606;2023-08-30T01:15:54;99928.85;;;12.09;80.10
49709;BME280;35601;55.902;13.606;2023-08-30T01:18:22;99925.75;;;11.94;81.03
49709;BME280;35601;55.902;13.606;2023-08-30T01:20:45;99923.26;;;11.59;80.74
49709;BME280;35601;55.902;13.606;2023-08-30T01:23:20;99919.23;;;12.08;80.62
49709;BME280;35601;55.902;13.606;2023-08-30T01:25:45;99919.53;;;11.83;80.71
49709;BME280;35601;55.902;13.606;2023-08-30T01:28:01;99919.73;;;11.83;80.72
49709;BME280;35601;55.902;13.606;2023-08-30T01:30:26;99916.55;;;11.92;81.46
49709;BME280;35601;55.902;13.606;2023-08-30T01:32:50;99916.49;;;11.67;81.55
49709;BME280;35601;55.902;13.606;2023-08-30T01:35:15;99917.71;;;12.02;81.09
49709;BME280;35601;55.902;13.606;2023-08-30T01:37:40;99923.59;;;12.07;80.89
49709;BME280;35601;55.902;13.606;2023-08-30T01:40:07;99920.11;;;12.10;80.81
49709;BME280;35601;55.902;13.606;2023-08-30T01:42:31;99912.52;;;11.89;80.54
49709;BME280;35601;55.902;13.606;2023-08-30T01:44:58;99901.67;;;12.08;80.43
49709;BME280;35601;55.902;13.606;2023-08-30T01:47:21;99892.43;;;11.88;81.11
49709;BME280;35601;55.902;13.606;2023-08-30T01:49:47;99887.33;;;11.66;81.56
49709;BME280;35601;55.902;13.606;2023-08-30T01:52:12;99887.09;;;11.56;82.14
49709;BME280;35601;55.902;13.606;2023-08-30T01:54:37;99883.87;;;11.70;81.80
49709;BME280;35601;55.902;13.606;2023-08-30T01:57:02;99876.87;;;11.80;81.21
49709;BME280;35601;55.902;13.606;2023-08-30T01:59:27;99869.09;;;11.61;81.98
49709;BME280;35601;55.902;13.606;2023-08-30T02:01:52;99861.69;;;11.52;82.15
49709;BME280;35601;55.902;13.606;2023-08-30T02:04:17;99861.76;;;11.55;82.22
49709;BME280;35601;55.902;13.606;2023-08-30T02:06:47;99863.19;;;11.91;81.38
49709;BME280;35601;55.902;13.606;2023-08-30T02:09:12;99859.70;;;11.72;80.84
49709;BME280;35601;55.902;13.606;2023-08-30T02:11:34;99854.49;;;11.76;80.68
49709;BME280;35601;55.902;13.606;2023-08-30T02:13:59;99846.04;;;11.76;80.02
49709;BME280;35601;55.902;13.606;2023-08-30T02:16:24;99843.13;;;11.95;79.65
49709;BME280;35601;55.902;13.606;2023-08-30T02:18:49;99846.34;;;11.71;79.52
49709;BME280;35601;55.902;13.606;2023-08-30T02:21:13;99846.41;;;11.59;79.98
49709;BME280;35601;55.902;13.606;2023-08-30T02:23:38;99846.33;;;11.35;79.86
49709;BME280;35601;55.902;13.606;2023-08-30T02:26:04;99845.45;;;11.56;79.86
49709;BME280;35601;55.902;13.606;2023-08-30T02:28:29;99843.31;;;11.76;79.87
49709;BME280;35601;55.902;13.606;2023-08-30T02:30:54;99842.14;;;11.72;79.98
49709;BME280;35601;55.902;13.606;2023-08-30T02:33:19;99841.49;;;11.73;79.96
49709;BME280;35601;55.902;13.606;2023-08-30T02:35:44;99839.35;;;11.72;80.06
49709;BME280;35601;55.902;13.606;2023-08-30T02:38:10;99838.25;;;11.48;80.08
49709;BME280;35601;55.902;13.606;2023-08-30T02:40:35;99845.00;;;11.47;80.11
49709;BME280;35601;55.902;13.606;2023-08-30T02:43:00;99851.73;;;11.48;80.14
49709;BME280;35601;55.902;13.606;2023-08-30T02:45:25;99855.76;;;11.49;80.40
49709;BME280;35601;55.902;13.606;2023-08-30T02:47:50;99858.46;;;11.47;81.11
49709;BME280;35601;55.902;13.606;2023-08-30T02:50:16;99860.12;;;11.71;81.30
49709;BME280;35601;55.902;13.606;2023-08-30T02:52:41;99862.49;;;11.67;81.58
49709;BME280;35601;55.902;13.606;2023-08-30T02:55:06;99865.80;;;11.58;82.00
49709;BME280;35601;55.902;13.606;2023-08-30T02:57:31;99868.53;;;11.68;81.79
49709;BME280;35601;55.902;13.606;2023-08-30T02:59:56;99870.55;;;11.73;81.47
49709;BME280;35601;55.902;13.606;2023-08-30T03:02:22;99871.66;;;11.29;81.24
49709;BME280;35601;55.902;13.606;2023-08-30T03:04:47;99874.32;;;11.50;81.39
49709;BME280;35601;55.902;13.606;2023-08-30T03:07:12;99876.63;;;11.77;80.55
49709;BME280;35601;55.902;13.606;2023-08-30T03:09:37;99880.24;;;11.70;80.48
49709;BME280;35601;55.902;13.606;2023-08-30T03:12:03;99878.40;;;11.67;80.47
49709;BME280;35601;55.902;13.606;2023-08-30T03:14:28;99878.58;;;11.66;80.53
49709;BME280;35601;55.902;13.606;2023-08-30T03:16:53;99877.76;;;11.66;80.68
49709;BME280;35601;55.902;13.606;2023-08-30T03:19:18;99874.23;;;11.43;80.81
49709;BME280;35601;55.902;13.606;2023-08-30T03:21:43;99875.78;;;11.43;80.88
49709;BME280;35601;55.902;13.606;2023-08-30T03:24:08;99874.48;;;11.68;80.64
49709;BME280;35601;55.902;13.606;2023-08-30T03:26:33;99871.97;;;11.68;80.48
49709;BME280;35601;55.902;13.606;2023-08-30T03:28:59;99869.49;;;11.67;80.19
49709;BME280;35601;55.902;13.606;2023-08-30T03:31:24;99869.75;;;11.38;80.04
49709;BME280;35601;55.902;13.606;2023-08-30T03:33:49;99871.53;;;11.34;80.12
49709;BME280;35601;55.902;13.606;2023-08-30T03:36:16;99872.28;;;11.51;80.86
49709;BME280;35601;55.902;13.606;2023-08-30T03:38:40;99870.78;;;11.41;81.86
49709;BME280;35601;55.902;13.606;2023-08-30T03:41:05;99865.95;;;11.48;81.91
49709;BME280;35601;55.902;13.606;2023-08-30T03:43:30;99861.42;;;11.33;81.53
49709;BME280;35601;55.902;13.606;2023-08-30T03:45:55;99850.60;;;11.56;81.34
49709;BME280;35601;55.902;13.606;2023-08-30T03:48:20;99844.58;;;11.32;80.68
49709;BME280;35601;55.902;13.606;2023-08-30T03:50:45;99847.23;;;11.17;80.99
49709;BME280;35601;55.902;13.606;2023-08-30T03:53:10;99850.30;;;11.43;80.86
49709;BME280;35601;55.902;13.606;2023-08-30T03:55:35;99851.79;;;11.37;80.90
49709;BME280;35601;55.902;13.606;2023-08-30T03:58:01;99847.52;;;11.28;80.98
49709;BME280;35601;55.902;13.606;2023-08-30T04:00:26;99847.26;;;11.32;80.88
49709;BME280;35601;55.902;13.606;2023-08-30T04:02:51;99845.94;;;11.23;81.54
49709;BME280;35601;55.902;13.606;2023-08-30T04:05:16;99843.56;;;11.09;82.59
49709;BME280;35601;55.902;13.606;2023-08-30T04:07:42;99837.10;;;11.20;82.33
49709;BME280;35601;55.902;13.606;2023-08-30T04:10:08;99837.76;;;11.21;81.75
49709;BME280;35601;55.902;13.606;2023-08-30T04:12:32;99842.98;;;11.20;81.32
49709;BME280;35601;55.902;13.606;2023-08-30T04:14:57;99848.98;;;11.10;81.61
49709;BME280;35601;55.902;13.606;2023-08-30T04:17:23;99856.66;;;11.14;81.42
49709;BME280;35601;55.902;13.606;2023-08-30T04:19:48;99860.06;;;11.17;81.62
49709;BME280;35601;55.902;13.606;2023-08-30T04:22:13;99856.38;;;11.18;81.61
49709;BME280;35601;55.902;13.606;2023-08-30T04:24:38;99855.94;;;11.20;81.45
49709;BME280;35601;55.902;13.606;2023-08-30T04:27:04;99856.38;;;11.18;81.30
49709;BME280;35601;55.902;13.606;2023-08-30T04:29:28;99860.66;;;11.19;81.27
49709;BME280;35601;55.902;13.606;2023-08-30T04:31:54;99860.80;;;11.21;81.40
49709;BME280;35601;55.902;13.606;2023-08-30T04:34:19;99857.39;;;11.16;82.16
49709;BME280;35601;55.902;13.606;2023-08-30T04:36:44;99853.98;;;11.21;82.39
49709;BME280;35601;55.902;13.606;2023-08-30T04:39:09;99853.80;;;11.24;81.91
49709;BME280;35601;55.902;13.606;2023-08-30T04:41:34;99857.01;;;11.01;81.82
49709;BME280;35601;55.902;13.606;2023-08-30T04:44:00;99854.69;;;10.82;82.52
49709;BME280;35601;55.902;13.606;2023-08-30T04:46:25;99851.17;;;10.98;82.06
49709;BME280;35601;55.902;13.606;2023-08-30T04:48:50;99842.21;;;11.03;81.84
49709;BME280;35601;55.902;13.606;2023-08-30T04:51:15;99836.89;;;11.07;81.81
49709;BME280;35601;55.902;13.606;2023-08-30T04:53:41;99832.23;;;10.18;81.68
49709;BME280;35601;55.902;13.606;2023-08-30T04:56:11;99827.30;;;11.05;81.38
49709;BME280;35601;55.902;13.606;2023-08-30T04:58:31;99822.23;;;11.31;81.38
49709;BME280;35601;55.902;13.606;2023-08-30T05:00:56;99815.28;;;11.30;81.87
49709;BME280;35601;55.902;13.606;2023-08-30T05:03:21;99810.18;;;11.18;82.81
49709;BME280;35601;55.902;13.606;2023-08-30T05:05:46;99808.59;;;11.19;83.04
49709;BME280;35601;55.902;13.606;2023-08-30T05:08:11;99810.45;;;11.21;83.24
49709;BME280;35601;55.902;13.606;2023-08-30T05:10:36;99810.69;;;11.43;83.35
49709;BME280;35601;55.902;13.606;2023-08-30T05:13:02;99811.47;;;11.19;83.43
49709;BME280;35601;55.902;13.606;2023-08-30T05:15:27;99811.13;;;11.29;83.15
49709;BME280;35601;55.902;13.606;2023-08-30T05:17:52;99818.41;;;11.45;82.86
49709;BME280;35601;55.902;13.606;2023-08-30T05:20:17;99825.88;;;11.34;82.60
49709;BME280;35601;55.902;13.606;2023-08-30T05:22:42;99829.54;;;11.68;82.51
49709;BME280;35601;55.902;13.606;2023-08-30T05:25:08;99829.17;;;11.52;82.29
49709;BME280;35601;55.902;13.606;2023-08-30T05:27:33;99827.71;;;11.82;82.11
49709;BME280;35601;55.902;13.606;2023-08-30T05:29:58;99825.43;;;11.87;81.86
49709;BME280;35601;55.902;13.606;2023-08-30T05:32:23;99827.45;;;11.86;81.77
49709;BME280;35601;55.902;13.606;2023-08-30T05:34:48;99827.53;;;11.65;81.88
49709;BME280;35601;55.902;13.606;2023-08-30T05:37:14;99832.77;;;11.69;81.88
49709;BME280;35601;55.902;13.606;2023-08-30T05:39:39;99838.01;;;11.73;81.56
49709;BME280;35601;55.902;13.606;2023-08-30T05:42:05;99837.04;;;11.76;81.72
49709;BME280;35601;55.902;13.606;2023-08-30T05:44:29;99841.03;;;11.72;81.86
49709;BME280;35601;55.902;13.606;2023-08-30T05:46:54;99844.06;;;11.80;81.73
49709;BME280;35601;55.902;13.606;2023-08-30T05:49:20;99848.15;;;12.03;82.27
49709;BME280;35601;55.902;13.606;2023-08-30T05:51:45;99849.70;;;11.88;82.11
49709;BME280;35601;55.902;13.606;2023-08-30T05:54:10;99853.62;;;11.93;82.25
49709;BME280;35601;55.902;13.606;2023-08-30T05:56:35;99866.27;;;11.78;82.48
49709;BME280;35601;55.902;13.606;2023-08-30T05:59:00;99873.54;;;12.30;82.53
49709;BME280;35601;55.902;13.606;2023-08-30T06:01:25;99868.39;;;11.98;83.13
49709;BME280;35601;55.902;13.606;2023-08-30T06:03:51;99855.96;;;11.98;82.81
49709;BME280;35601;55.902;13.606;2023-08-30T06:06:16;99856.00;;;12.37;81.92
49709;BME280;35601;55.902;13.606;2023-08-30T06:08:41;99863.80;;;12.29;81.70
49709;BME280;35601;55.902;13.606;2023-08-30T06:11:06;99866.83;;;12.44;81.23
49709;BME280;35601;55.902;13.606;2023-08-30T06:13:31;99861.31;;;12.58;81.16
49709;BME280;35601;55.902;13.606;2023-08-30T06:15:57;99858.47;;;12.43;81.41
49709;BME280;35601;55.902;13.606;2023-08-30T06:18:22;99857.17;;;12.82;80.53
49709;BME280;35601;55.902;13.606;2023-08-30T06:20:47;99860.98;;;13.00;80.54
49709;BME280;35601;55.902;13.606;2023-08-30T06:23:13;99864.10;;;13.14;79.86
49709;BME280;35601;55.902;13.606;2023-08-30T06:25:37;99863.39;;;12.96;79.89
49709;BME280;35601;55.902;13.606;2023-08-30T06:28:04;99862.06;;;13.12;79.57
49709;BME280;35601;55.902;13.606;2023-08-30T06:30:28;99862.77;;;12.91;79.29
49709;BME280;35601;55.902;13.606;2023-08-30T06:32:53;99861.14;;;13.29;77.95
49709;BME280;35601;55.902;13.606;2023-08-30T06:35:18;99863.11;;;13.23;77.60
49709;BME280;35601;55.902;13.606;2023-08-30T06:37:44;99862.53;;;13.39;76.83
49709;BME280;35601;55.902;13.606;2023-08-30T06:40:10;99863.38;;;13.49;76.50
49709;BME280;35601;55.902;13.606;2023-08-30T06:42:34;99861.88;;;13.57;76.81
49709;BME280;35601;55.902;13.606;2023-08-30T06:44:59;99860.56;;;13.62;77.20
49709;BME280;35601;55.902;13.606;2023-08-30T06:47:24;99864.08;;;13.71;77.08
49709;BME280;35601;55.902;13.606;2023-08-30T06:49:49;99862.17;;;13.90;76.53
49709;BME280;35601;55.902;13.606;2023-08-30T06:52:15;99855.40;;;14.07;75.93
49709;BME280;35601;55.902;13.606;2023-08-30T06:54:40;99851.25;;;14.24;75.84
49709;BME280;35601;55.902;13.606;2023-08-30T06:57:05;99847.31;;;13.94;75.20
49709;BME280;35601;55.902;13.606;2023-08-30T06:59:30;99842.40;;;14.33;75.50
49709;BME280;35601;55.902;13.606;2023-08-30T07:01:55;99836.87;;;14.11;73.56
49709;BME280;35601;55.902;13.606;2023-08-30T07:04:20;99835.91;;;13.93;73.41
49709;BME280;35601;55.902;13.606;2023-08-30T07:06:45;99835.40;;;14.40;73.90
49709;BME280;35601;55.902;13.606;2023-08-30T07:09:11;99837.50;;;14.18;73.68
49709;BME280;35601;55.902;13.606;2023-08-30T07:11:36;99834.36;;;14.34;73.85
49709;BME280;35601;55.902;13.606;2023-08-30T07:14:02;99835.13;;;14.61;72.88
49709;BME280;35601;55.902;13.606;2023-08-30T07:16:26;99831.12;;;14.40;72.43
49709;BME280;35601;55.902;13.606;2023-08-30T07:18:51;99831.42;;;14.89;72.03
49709;BME280;35601;55.902;13.606;2023-08-30T07:21:16;99832.11;;;15.02;72.38
49709;BME280;35601;55.902;13.606;2023-08-30T07:23:41;99839.04;;;15.24;71.53
49709;BME280;35601;55.902;13.606;2023-08-30T07:26:07;99839.67;;;15.53;71.36
49709;BME280;35601;55.902;13.606;2023-08-30T07:28:32;99844.10;;;15.33;70.43
49709;BME280;35601;55.902;13.606;2023-08-30T07:31:02;99844.81;;;15.55;68.36
49709;BME280;35601;55.902;13.606;2023-08-30T07:33:22;99847.46;;;15.58;68.54
49709;BME280;35601;55.902;13.606;2023-08-30T07:35:47;99845.22;;;15.96;67.83
49709;BME280;35601;55.902;13.606;2023-08-30T07:38:12;99848.10;;;16.09;67.37
49709;BME280;35601;55.902;13.606;2023-08-30T07:40:37;99844.51;;;16.37;65.34
49709;BME280;35601;55.902;13.606;2023-08-30T07:43:03;99846.32;;;16.27;64.63
49709;BME280;35601;55.902;13.606;2023-08-30T07:45:27;99845.85;;;16.41;64.11
49709;BME280;35601;55.902;13.606;2023-08-30T07:47:53;99843.92;;;16.35;63.23
49709;BME280;35601;55.902;13.606;2023-08-30T07:50:18;99844.61;;;16.37;63.62
49709;BME280;35601;55.902;13.606;2023-08-30T07:52:44;99844.10;;;16.49;62.22
49709;BME280;35601;55.902;13.606;2023-08-30T07:55:08;99843.93;;;16.91;61.75
49709;BME280;35601;55.902;13.606;2023-08-30T07:57:33;99846.28;;;16.70;61.35
49709;BME280;35601;55.902;13.606;2023-08-30T07:59:58;99845.66;;;16.54;58.73
49709;BME280;35601;55.902;13.606;2023-08-30T08:02:24;99844.70;;;16.74;61.19
49709;BME280;35601;55.902;13.606;2023-08-30T08:04:48;99843.55;;;16.76;60.58
49709;BME280;35601;55.902;13.606;2023-08-30T08:07:13;99845.87;;;16.94;56.93
49709;BME280;35601;55.902;13.606;2023-08-30T08:09:39;99846.28;;;16.53;57.14
49709;BME280;35601;55.902;13.606;2023-08-30T08:12:05;99845.94;;;16.86;55.49
49709;BME280;35601;55.902;13.606;2023-08-30T08:14:29;99841.69;;;17.01;55.34
49709;BME280;35601;55.902;13.606;2023-08-30T08:16:54;99840.95;;;16.68;54.07
49709;BME280;35601;55.902;13.606;2023-08-30T08:19:19;99846.14;;;17.10;55.80
49709;BME280;35601;55.902;13.606;2023-08-30T08:21:44;99846.47;;;17.11;54.18
49709;BME280;35601;55.902;13.606;2023-08-30T08:24:09;99846.42;;;18.02;54.73
49709;BME280;35601;55.902;13.606;2023-08-30T08:26:34;99843.02;;;17.88;53.46
49709;BME280;35601;55.902;13.606;2023-08-30T08:28:59;99840.60;;;17.57;51.40
49709;BME280;35601;55.902;13.606;2023-08-30T08:31:24;99837.77;;;17.99;49.58
49709;BME280;35601;55.902;13.606;2023-08-30T08:33:51;99839.10;;;17.77;49.41
49709;BME280;35601;55.902;13.606;2023-08-30T08:36:15;99836.34;;;18.13;48.07
49709;BME280;35601;55.902;13.606;2023-08-30T08:38:40;99833.70;;;17.97;49.84
49709;BME280;35601;55.902;13.606;2023-08-30T08:41:06;99833.39;;;18.23;48.92
49709;BME280;35601;55.902;13.606;2023-08-30T08:43:32;99827.59;;;18.33;48.32
49709;BME280;35601;55.902;13.606;2023-08-30T08:45:58;99823.29;;;18.64;47.34
49709;BME280;35601;55.902;13.606;2023-08-30T08:48:20;99820.25;;;19.04;47.54
49709;BME280;35601;55.902;13.606;2023-08-30T08:50:45;99818.26;;;18.97;46.09
49709;BME280;35601;55.902;13.606;2023-08-30T08:53:10;99818.67;;;19.12;42.00
49709;BME280;35601;55.902;13.606;2023-08-30T08:55:36;99822.55;;;18.86;43.52
49709;BME280;35601;55.902;13.606;2023-08-30T08:58:02;99826.60;;;19.26;41.90
49709;BME280;35601;55.902;13.606;2023-08-30T09:00:26;99828.54;;;19.25;40.77
49709;BME280;35601;55.902;13.606;2023-08-30T09:02:51;99831.51;;;19.39;41.43
49709;BME280;35601;55.902;13.606;2023-08-30T09:05:16;99835.88;;;19.56;42.44
49709;BME280;35601;55.902;13.606;2023-08-30T09:07:42;99834.50;;;19.53;41.17
49709;BME280;35601;55.902;13.606;2023-08-30T09:10:06;99832.97;;;20.39;41.62
49709;BME280;35601;55.902;13.606;2023-08-30T09:12:32;99831.76;;;19.61;40.59
49709;BME280;35601;55.902;13.606;2023-08-30T09:14:56;99829.36;;;19.29;41.90
49709;BME280;35601;55.902;13.606;2023-08-30T09:17:21;99827.52;;;18.85;42.20
49709;BME280;35601;55.902;13.606;2023-08-30T09:19:46;99823.80;;;19.31;44.06
49709;BME280;35601;55.902;13.606;2023-08-30T09:22:11;99823.73;;;19.49;41.99
49709;BME280;35601;55.902;13.606;2023-08-30T09:24:38;99823.87;;;19.81;43.99
49709;BME280;35601;55.902;13.606;2023-08-30T09:27:03;99824.73;;;20.14;44.20
49709;BME280;35601;55.902;13.606;2023-08-30T09:29:26;99822.81;;;20.17;42.08
49709;BME280;35601;55.902;13.606;2023-08-30T09:31:52;99825.22;;;20.15;41.36
49709;BME280;35601;55.902;13.606;2023-08-30T09:34:16;99829.11;;;20.04;41.22
49709;BME280;35601;55.902;13.606;2023-08-30T09:36:42;99831.20;;;20.47;40.71
49709;BME280;35601;55.902;13.606;2023-08-30T09:39:08;99828.97;;;20.66;39.68
49709;BME280;35601;55.902;13.606;2023-08-30T09:41:32;99828.84;;;20.69;42.01
49709;BME280;35601;55.902;13.606;2023-08-30T09:43:57;99826.78;;;20.76;44.12
49709;BME280;35601;55.902;13.606;2023-08-30T09:46:22;99822.39;;;20.67;43.23
49709;BME280;35601;55.902;13.606;2023-08-30T09:48:47;99819.26;;;20.71;41.59
49709;BME280;35601;55.902;13.606;2023-08-30T09:51:13;99814.43;;;21.00;39.84
49709;BME280;35601;55.902;13.606;2023-08-30T09:53:42;99819.06;;;21.03;40.46
49709;BME280;35601;55.902;13.606;2023-08-30T09:56:02;99814.67;;;20.76;38.83
49709;BME280;35601;55.902;13.606;2023-08-30T09:58:27;99815.21;;;21.04;39.61
49709;BME280;35601;55.902;13.606;2023-08-30T10:00:52;99812.85;;;21.17;38.87
49709;BME280;35601;55.902;13.606;2023-08-30T10:03:17;99812.10;;;21.23;38.47
49709;BME280;35601;55.902;13.606;2023-08-30T10:05:43;99807.70;;;21.48;38.17
49709;BME280;35601;55.902;13.606;2023-08-30T10:08:07;99806.99;;;21.66;38.38
49709;BME280;35601;55.902;13.606;2023-08-30T10:10:33;99803.63;;;21.20;36.51
49709;BME280;35601;55.902;13.606;2023-08-30T10:12:58;99798.43;;;21.60;36.06
49709;BME280;35601;55.902;13.606;2023-08-30T10:15:23;99791.92;;;22.50;36.27
49709;BME280;35601;55.902;13.606;2023-08-30T10:17:48;99790.15;;;22.52;35.84
49709;BME280;35601;55.902;13.606;2023-08-30T10:20:13;99791.88;;;22.26;36.33
49709;BME280;35601;55.902;13.606;2023-08-30T10:22:40;99791.21;;;22.77;34.93
49709;BME280;35601;55.902;13.606;2023-08-30T10:25:07;99792.59;;;22.28;34.97
49709;BME280;35601;55.902;13.606;2023-08-30T10:27:28;99792.82;;;22.62;35.59
49709;BME280;35601;55.902;13.606;2023-08-30T10:29:53;99798.23;;;22.78;35.42
49709;BME280;35601;55.902;13.606;2023-08-30T10:32:19;99801.14;;;22.75;34.34
49709;BME280;35601;55.902;13.606;2023-08-30T10:34:47;99802.67;;;22.38;34.52
49709;BME280;35601;55.902;13.606;2023-08-30T10:37:11;99802.00;;;22.42;35.62
49709;BME280;35601;55.902;13.606;2023-08-30T10:39:34;99810.16;;;21.95;35.34
49709;BME280;35601;55.902;13.606;2023-08-30T10:41:58;99802.60;;;22.36;35.89
49709;BME280;35601;55.902;13.606;2023-08-30T10:44:23;99803.07;;;22.70;36.05
49709;BME280;35601;55.902;13.606;2023-08-30T10:46:52;99800.39;;;22.85;34.82
49709;BME280;35601;55.902;13.606;2023-08-30T10:49:13;99799.89;;;23.16;35.66
49709;BME280;35601;55.902;13.606;2023-08-30T10:51:39;99801.40;;;22.80;35.86
49709;BME280;35601;55.902;13.606;2023-08-30T10:54:11;99795.82;;;22.91;34.60
49709;BME280;35601;55.902;13.606;2023-08-30T10:56:29;99795.00;;;22.66;33.79
49709;BME280;35601;55.902;13.606;2023-08-30T10:58:53;99797.76;;;22.34;34.00
49709;BME280;35601;55.902;13.606;2023-08-30T11:01:19;99798.79;;;22.29;35.26
49709;BME280;35601;55.902;13.606;2023-08-30T11:03:43;99803.82;;;21.79;33.70
49709;BME280;35601;55.902;13.606;2023-08-30T11:06:13;99802.14;;;21.86;35.00
49709;BME280;35601;55.902;13.606;2023-08-30T11:08:33;99799.42;;;22.07;35.81
49709;BME280;35601;55.902;13.606;2023-08-30T11:11:03;99797.60;;;22.65;36.65
49709;BME280;35601;55.902;13.606;2023-08-30T11:13:23;99797.40;;;23.08;35.19
49709;BME280;35601;55.902;13.606;2023-08-30T11:15:50;99799.61;;;23.19;35.47
49709;BME280;35601;55.902;13.606;2023-08-30T11:18:18;99803.71;;;23.14;37.71
49709;BME280;35601;55.902;13.606;2023-08-30T11:20:38;99804.05;;;23.28;39.60
49709;BME280;35601;55.902;13.606;2023-08-30T11:23:04;99801.76;;;23.40;37.69
49709;BME280;35601;55.902;13.606;2023-08-30T11:25:29;99798.81;;;23.23;37.30
49709;BME280;35601;55.902;13.606;2023-08-30T11:28:02;99800.23;;;23.41;36.12
49709;BME280;35601;55.902;13.606;2023-08-30T11:30:18;99799.84;;;23.26;36.68
49709;BME280;35601;55.902;13.606;2023-08-30T11:32:43;99796.39;;;22.94;36.34
49709;BME280;35601;55.902;13.606;2023-08-30T11:35:09;99798.16;;;22.76;37.79
49709;BME280;35601;55.902;13.606;2023-08-30T11:37:34;99795.90;;;23.05;36.53
49709;BME280;35601;55.902;13.606;2023-08-30T11:40:00;99798.97;;;23.04;37.47
49709;BME280;35601;55.902;13.606;2023-08-30T11:42:24;99796.04;;;23.07;36.48
49709;BME280;35601;55.902;13.606;2023-08-30T11:44:49;99797.86;;;22.95;40.32
49709;BME280;35601;55.902;13.606;2023-08-30T11:47:18;99798.71;;;23.00;38.81
49709;BME280;35601;55.902;13.606;2023-08-30T11:49:39;99799.19;;;23.36;38.70
49709;BME280;35601;55.902;13.606;2023-08-30T11:52:04;99800.83;;;23.58;37.39
49709;BME280;35601;55.902;13.606;2023-08-30T11:54:29;99802.38;;;23.55;38.04
49709;BME280;35601;55.902;13.606;2023-08-30T11:56:54;99803.57;;;23.78;36.79
49709;BME280;35601;55.902;13.606;2023-08-30T11:59:19;99802.12;;;23.33;37.83
49709;BME280;35601;55.902;13.606;2023-08-30T12:01:44;99804.19;;;23.63;38.46
49709;BME280;35601;55.902;13.606;2023-08-30T12:04:10;99804.12;;;22.94;37.40
49709;BME280;35601;55.902;13.606;2023-08-30T12:06:34;99803.95;;;23.34;37.74
49709;BME280;35601;55.902;13.606;2023-08-30T12:08:59;99803.07;;;23.06;35.22
49709;BME280;35601;55.902;13.606;2023-08-30T12:11:24;99800.86;;;23.29;37.79
49709;BME280;35601;55.902;13.606;2023-08-30T12:13:49;99800.00;;;23.28;37.25
49709;BME280;35601;55.902;13.606;2023-08-30T12:16:17;99796.82;;;23.54;35.16
49709;BME280;35601;55.902;13.606;2023-08-30T12:18:39;99796.05;;;23.60;35.48
49709;BME280;35601;55.902;13.606;2023-08-30T12:21:05;99793.99;;;23.33;37.23
49709;BME280;35601;55.902;13.606;2023-08-30T12:23:31;99790.21;;;23.61;35.86
49709;BME280;35601;55.902;13.606;2023-08-30T12:25:59;99786.73;;;23.70;34.14
49709;BME280;35601;55.902;13.606;2023-08-30T12:28:20;99785.88;;;24.22;32.31
49709;BME280;35601;55.902;13.606;2023-08-30T12:30:45;99783.52;;;24.12;34.09
49709;BME280;35601;55.902;13.606;2023-08-30T12:33:10;99783.74;;;23.73;35.10
49709;BME280;35601;55.902;13.606;2023-08-30T12:35:35;99781.11;;;23.80;33.76
49709;BME280;35601;55.902;13.606;2023-08-30T12:38:00;99781.77;;;24.14;33.26